Weather observations for the past three days for
Pennridge Airport
Metric (Imperial)
Date Time (edt) Wind (kph) Vis. (km) Weather Sky Cond. Temperature (ºC) Relative Humidity Wind Chill (°C) Heat Index (°C) Pressure Precipitation (cm)
Air Dwpt 6 hour altimeter (cm) sea level (mb) 1 hr 3 hr 6 hr
Max. Min.
10 01:55 Calm 0.24 Fog OVC002 9 9 100% 75.82 0.0
10 01:35 Calm 0.24 Fog OVC002 9 9 100% 75.84 0.0
10 01:15 Calm 0.24 Fog OVC002 10 10 100% 75.84 0.0
10 00:55 Calm 0.24 Fog OVC002 10 10 100% 75.84 0.0
10 00:35 Calm 0.24 Fog OVC002 10 10 100% 75.87 0.0
10 00:15 Calm 0.24 Fog OVC002 10 10 100% 75.87 0.0
09 23:55 Calm 0.24 Fog OVC002 10 10 100% 75.87 0.0
09 23:35 Calm 0.24 Fog OVC002 10 10 100% 75.87 0.0
09 23:15 Calm 0.24 Fog OVC002 10 10 100% 75.84 0.0
09 22:55 Calm 0.40 Fog OVC002 10 10 100% 75.84 0.0
09 22:35 Calm 4.02 Fog/Mist OVC003 10 10 100% 75.84 0.0
09 22:15 Calm 0.80 Fog/Mist OVC004 9 9 100% 75.84 0.0
09 21:55 Calm 0.40 Fog SCT001 BKN005 BKN070 9 9 100% 75.84 0.0
09 21:35 Calm 0.40 Fog BKN080 9 9 100% 75.82 0.0
09 21:15 Calm 0.24 Fog OVC080 10 10 100% 75.82 0.0
09 20:55 Calm 1.21 Fog/Mist BKN080 11 11 100% 75.82 0.0
09 20:35 Calm 3.22 Fog/Mist CLR 11 11 100% 75.79 0.0
09 20:15 Calm 14.48 A Few Clouds FEW007 12 12 100% 75.77 0.0
09 19:55 Calm 14.48 Partly Cloudy FEW007 SCT011 SCT075 13 13 100% 75.77 0.0
09 19:35 Calm 16.09 Mostly Cloudy FEW010 BKN080 13 13 100% 75.77 0.0
09 19:15 Calm 16.09 Mostly Cloudy SCT014 BKN080 14 14 100% 75.79 0.0
09 18:55 Calm 16.09 Partly Cloudy SCT013 14 14 100% 75.77 0.0
09 18:15 E 6 16.09 Overcast FEW007 BKN011 OVC090 14 14 100% 75.77 0.0
09 17:55 Calm 16.09 Mostly Cloudy SCT080 BKN090 14 14 100% 75.77 0.0
09 17:35 Calm 16.09 Partly Cloudy SCT080 14 14 100% 75.77 0.0
09 17:15 W 6 16.09 A Few Clouds FEW036 FEW085 14 14 100% 75.79 0.0
09 16:55 Calm 16.09 Mostly Cloudy BKN036 13 13 100% 75.77 0.0
09 16:35 Calm 12.87 Light Drizzle SCT038 SCT044 13 13 100% 75.77 0.0
09 16:15 Calm 6.44 Light Drizzle SCT033 BKN043 BKN065 12 12 100% 75.79 0.0
09 15:55 Calm 4.83 Light Rain SCT036 SCT043 BKN065 12 12 100% 75.82 0.0
09 15:35 Calm 4.02 Rain BKN037 BKN043 12 12 100% 75.84 0.0
09 15:15 Calm 4.02 Rain FEW008 FEW038 BKN047 12 12 100% 75.87 0.0
09 14:55 NW 7 4.83 Light Rain FEW037 BKN050 12 12 100% 75.9 0.0
09 14:35 NW 6 4.83 Light Rain FEW006 SCT017 BKN050 12 12 100% 75.9 0.0
09 14:15 NW 7 2.82 Rain BKN006 BKN011 BKN018 13 13 100% 75.9 0.0
09 13:55 Calm 3.22 Rain FEW011 FEW034 SCT060 13 13 100% 75.9 0.0
09 13:35 W 7 3.22 Rain FEW010 FEW034 FEW045 13 13 100% 75.9 0.0
09 13:15 Calm 4.83 Light Rain FEW060 13 13 100% 75.87 0.0
09 12:55 Calm 8.05 Light Rain FEW060 13 13 100% 75.9 0.0
09 12:35 SW 9 6.44 Light Rain CLR 14 13 94% 75.92 0.0
09 12:15 Vrbl 7 8.05 Light Rain FEW022 FEW060 14 13 94% 75.9 0.0
09 11:55 Vrbl 11 G 28 14.48 A Few Clouds FEW060 15 12 82% 75.95 0.0
09 11:35 Vrbl 9 G 26 14.48 A Few Clouds FEW070 FEW075 16 11 72% 75.95 0.0
09 11:15 Vrbl 7 14.48 Partly Cloudy SCT065 15 12 82% 75.92 0.0
09 10:55 W 11 16.09 Fair CLR 15 12 82% 75.92 0.0
09 10:35 SW 9 16.09 A Few Clouds FEW075 15 12 82% 75.92 0.0
09 10:15 SW 7 G 19 16.09 A Few Clouds FEW070 14 12 88% 75.9 0.0
09 09:55 Vrbl 7 16.09 A Few Clouds FEW080 14 12 88% 75.9 0.0
09 09:35 S 9 16.09 Partly Cloudy SCT085 14 12 88% 75.9 0.0
09 09:15 Vrbl 7 16.09 Partly Cloudy SCT085 14 12 88% 75.9 0.0
09 08:55 Calm 16.09 Fair CLR 13 11 88% 75.9 0.0
09 08:35 Vrbl 6 14.48 Fair CLR 13 11 88% 75.92 0.0
09 08:15 Calm 16.09 A Few Clouds FEW100 12 10 88% 75.92 0.0
09 07:55 Calm 16.09 Partly Cloudy SCT120 12 10 88% 75.92 0.0
09 07:35 Calm 16.09 Overcast OVC120 12 10 88% 75.9 0.0
09 07:15 Calm 16.09 Overcast OVC110 12 9 82% 75.9 0.0
09 06:55 Vrbl 6 16.09 Overcast OVC110 12 9 82% 75.9 0.0
09 06:35 Calm 16.09 Overcast OVC110 12 9 82% 75.9 0.0
09 06:15 Calm 16.09 Overcast FEW080 BKN095 OVC110 12 9 82% 75.87 0.0
09 05:55 Calm 16.09 Overcast FEW070 OVC090 12 9 82% 75.9 0.0
09 05:35 Calm 16.09 Overcast FEW065 OVC085 12 9 82% 75.9 0.0
09 05:15 Calm 16.09 Overcast BKN080 BKN100 OVC120 12 9 82% 75.9 0.0
09 04:55 Calm 16.09 Overcast OVC110 12 8 77% 75.9 0.0
09 04:35 Calm 14.48 Overcast OVC110 11 9 88% 75.92 0.0
09 04:15 Calm 14.48 Overcast OVC110 10 9 94% 75.92 0.0
09 03:55 Calm 16.09 Overcast OVC100 10 9 94% 75.92 0.0
09 03:35 Calm 14.48 Overcast BKN090 OVC120 10 10 100% 75.92 0.0
09 03:15 Calm 16.09 Overcast OVC090 10 10 100% 75.9 0.0
09 02:55 Calm 16.09 Overcast OVC095 10 10 100% 75.92 0.0
09 02:35 NE 6 16.09 Overcast OVC090 10 10 100% 75.92 0.0
09 02:15 Calm 16.09 Overcast OVC085 10 10 100% 75.95 0.0
09 01:55 Calm 16.09 Overcast BKN080 OVC090 11 10 94% 75.97 0.0
09 01:35 Calm 16.09 Overcast OVC085 11 9 88% 75.97 0.0
09 01:15 Calm 16.09 Overcast SCT080 OVC090 11 9 88% 75.97 0.0
09 00:55 Calm 16.09 Overcast BKN075 OVC085 11 8 82% 75.97 0.0
09 00:35 Calm 16.09 Overcast OVC070 11 10 94% 76 0.0
09 00:15 Calm 16.09 Overcast FEW049 FEW055 OVC075 11 9 88% 76 0.0
08 23:55 Calm 16.09 Overcast OVC075 11 8 82% 76 0.0
08 23:35 Calm 16.09 Overcast OVC075 11 8 82% 76.02 0.0
08 23:15 Calm 16.09 Overcast OVC075 11 8 82% 76 0.0
08 22:55 Calm 16.09 Mostly Cloudy SCT075 BKN090 BKN110 11 8 82% 76 0.0
08 22:35 Calm 16.09 Mostly Cloudy SCT100 BKN120 11 8 82% 76 0.0
08 22:15 Calm 16.09 Overcast SCT070 OVC120 11 8 82% 76 0.0
08 21:55 Calm 16.09 Mostly Cloudy BKN075 BKN120 11 8 82% 75.97 0.0
08 21:35 Calm 16.09 Overcast BKN075 OVC085 13 8 72% 75.97 0.0
08 21:15 Calm 16.09 Overcast OVC075 13 8 72% 75.95 0.0
08 20:55 Calm 16.09 Overcast OVC075 13 7 67% 75.92 0.0
08 20:35 Calm 16.09 Overcast OVC075 13 7 67% 75.9 0.0
08 20:15 Calm 16.09 Overcast OVC080 14 5 55% 75.87 0.0
08 19:55 Calm 16.09 Overcast OVC095 14 5 55% 75.87 0.0
08 19:35 Calm 16.09 Overcast OVC110 15 4 48% 75.84 0.0
08 19:15 Calm 16.09 Overcast BKN095 OVC120 16 3 42% 75.84 0.0
08 18:55 W 7 16.09 Mostly Cloudy BKN095 16 2 39% 75.84 0.0
08 18:35 W 9 16.09 Mostly Cloudy BKN090 BKN110 17 2 37% 75.84 0.0
08 18:15 W 11 16.09 Overcast BKN080 OVC095 17 2 37% 75.84 0.0
08 17:55 Vrbl 11 16.09 Mostly Cloudy FEW070 BKN080 BKN095 17 2 37% 75.84 0.0
08 17:35 W 15 16.09 Mostly Cloudy SCT070 BKN085 17 2 37% 75.84 0.0
08 17:15 Vrbl 11 G 22 16.09 Partly Cloudy FEW070 SCT080 SCT110 17 2 37% 75.84 0.0
08 16:55 W 15 G 26 16.09 Partly Cloudy SCT100 18 2 34% 75.84 0.0
08 16:35 W 13 G 30 16.09 Partly Cloudy FEW080 SCT095 18 2 34% 75.84 0.0
08 16:15 W 19 G 37 16.09 Partly Cloudy SCT075 SCT085 18 1 32% 75.87 0.0
08 15:55 W 24 G 48 16.09 Mostly Cloudy BKN075 18 1 32% 75.87 0.0
08 15:35 W 28 G 39 16.09 Mostly Cloudy BKN075 BKN085 18 1 32% 75.87 0.0
08 15:15 W 17 G 26 16.09 Mostly Cloudy SCT070 SCT080 BKN100 17 2 37% 75.87 0.0
08 14:55 W 13 G 33 16.09 Partly Cloudy FEW075 SCT100 17 1 34% 75.9 0.0
08 14:35 W 22 16.09 Partly Cloudy SCT075 SCT090 18 2 34% 75.9 0.0
08 14:15 W 22 G 46 16.09 A Few Clouds FEW080 FEW100 17 1 34% 75.9 0.0
08 13:55 W 24 G 37 16.09 Partly Cloudy SCT070 SCT080 17 1 34% 75.92 0.0
08 13:35 SW 24 G 37 16.09 Partly Cloudy SCT070 SCT080 17 0 32% 75.92 0.0
08 13:15 W 20 G 33 16.09 Partly Cloudy FEW065 SCT080 SCT090 16 0 34% 75.95 0.0
08 12:55 W 22 G 35 16.09 A Few Clouds FEW060 16 0 34% 75.95 0.0
08 12:35 SW 24 G 37 16.09 A Few Clouds FEW060 16 1 36% 75.95 0.0
08 12:15 W 17 G 30 16.09 Fair CLR 15 1 39% 75.97 0.0
08 11:55 W 20 G 30 16.09 A Few Clouds FEW070 15 1 39% 76 0.0
08 11:35 W 11 G 22 16.09 Mostly Cloudy BKN065 BKN075 14 2 44% 76.05 0.0
08 11:15 Vrbl 11 G 22 16.09 Overcast BKN060 OVC070 13 1 44% 76.07 0.0
08 10:55 W 17 16.09 Overcast BKN065 BKN075 OVC100 13 0 41% 76.05 0.0
08 10:35 W 13 G 24 16.09 Mostly Cloudy FEW060 SCT070 BKN080 14 0 39% 76.05 0.0
08 10:15 Vrbl 11 16.09 Mostly Cloudy BKN080 BKN100 13 1 44% 76.05 0.0
08 09:55 W 13 16.09 Overcast SCT080 OVC095 12 0 44% 76.07 0.0
08 09:35 SW 6 16.09 Mostly Cloudy FEW080 BKN095 12 0 44% 76.07 0.0
08 09:15 Vrbl 11 16.09 Partly Cloudy SCT095 12 0 44% 76.05 0.0
08 08:55 Vrbl 6 16.09 Fair CLR 12 0 44% 76.07 0.0
08 08:35 W 9 16.09 Fair CLR 11 1 50% 76.07 0.0
08 08:15 Vrbl 11 16.09 Fair CLR 11 3 58% 76.07 0.0
08 07:55 Vrbl 9 16.09 Fair CLR 10 3 62% 9 76.05 0.0
08 07:35 NW 9 16.09 Fair CLR 9 4 71% 8 76.05 0.0
08 07:15 NW 7 16.09 Fair CLR 8 5 82% 7 76.05 0.0
08 06:55 NW 6 16.09 Fair CLR 6 6 100% 76.05 0.0
08 06:35 Calm 16.09 Fair CLR 5 5 100% 76.02 0.0
08 06:15 Calm 14.48 Fair CLR 4 4 100% 76.02 0.0
08 05:55 Calm 16.09 Fair CLR 4 4 100% 76 0.0
08 05:35 Calm 16.09 Fair CLR 4 4 100% 76 0.0
08 04:55 Calm 16.09 Fair CLR 5 5 100% 75.97 0.0
08 04:35 Calm 16.09 Fair CLR 6 6 100% 75.97 0.0
08 04:15 Calm 16.09 Fair CLR 7 6 93% 75.95 0.0
08 03:55 NW 6 16.09 Fair CLR 7 5 87% 75.92 0.0
08 03:35 Vrbl 6 16.09 Fair CLR 8 4 76% 75.9 0.0
08 03:15 Vrbl 9 G 20 16.09 A Few Clouds FEW050 FEW090 9 4 71% 8 75.9 0.0
08 02:55 N 11 16.09 Partly Cloudy SCT095 9 4 71% 8 75.87 0.0
08 02:35 NW 15 16.09 Overcast OVC095 10 5 71% 8 75.87 0.0
08 02:15 NW 19 G 30 16.09 Mostly Cloudy FEW024 SCT065 BKN080 10 4 67% 8 75.84 0.0
08 01:55 NW 17 16.09 Mostly Cloudy FEW043 SCT070 BKN100 10 3 62% 8 75.82 0.0
08 01:35 W 11 G 24 16.09 Overcast FEW070 SCT075 OVC095 11 3 58% 75.77 0.0
08 01:15 NW 15 16.09 Overcast FEW065 BKN075 OVC090 10 5 71% 8 75.79 0.0
08 00:55 Calm 16.09 Overcast FEW065 BKN075 OVC090 9 9 100% 75.77 0.0
08 00:35 Calm 16.09 Overcast FEW046 SCT060 OVC070 9 9 100% 75.74 0.0
08 00:15 Calm 16.09 Overcast SCT047 SCT060 OVC070 9 8 94% 75.74 0.0
07 23:55 NE 7 16.09 Overcast FEW045 SCT060 OVC070 9 9 100% 8 75.72 0.0
07 23:35 Calm 16.09 Overcast FEW050 SCT065 OVC070 8 7 93% 75.74 0.0
07 23:15 Calm 16.09 Overcast OVC070 8 8 100% 75.72 0.0
07 22:55 Calm 16.09 Overcast BKN065 OVC075 8 6 87% 75.72 0.0
07 22:35 Calm 16.09 Overcast BKN075 OVC100 8 6 87% 75.72 0.0
07 22:15 Calm 16.09 Overcast OVC100 8 6 87% 75.72 0.0
07 21:55 Calm 16.09 Overcast FEW070 SCT075 OVC100 9 5 76% 75.72 0.0
07 21:35 Calm 16.09 Overcast SCT070 OVC095 9 4 71% 75.69 0.0
07 21:15 Calm 16.09 Overcast OVC100 10 3 62% 75.69 0.0
07 20:55 Calm 16.09 Overcast OVC100 10 2 58% 75.69 0.0
07 20:35 Calm 16.09 Mostly Cloudy BKN090 11 2 54% 75.67 0.0
07 20:15 Calm 16.09 A Few Clouds FEW095 12 1 47% 75.67 0.0
07 19:55 Calm 16.09 Fair CLR 13 1 44% 75.64 0.0
07 19:35 W 7 16.09 Fair CLR 15 -1 34% 75.64 0.0
07 19:15 Vrbl 9 16.09 A Few Clouds FEW090 16 -1 31% 75.62 0.0
07 18:55 NW 11 16.09 Fair CLR 16 -1 31% 75.62 0.0
07 18:35 NW 11 16.09 A Few Clouds FEW085 17 -2 27% 75.62 0.0
07 18:15 NW 7 G 20 16.09 A Few Clouds FEW085 16 -1 31% 75.62 0.0
07 17:55 W 13 G 26 16.09 A Few Clouds FEW075 17 -1 30% 75.62 0.0
07 17:35 N 11 16.09 A Few Clouds FEW075 17 0 32% 75.62 0.0
07 17:15 NW 13 G 26 16.09 Partly Cloudy SCT075 17 -1 30% 75.62 0.0
07 16:15 SW 15 G 28 16.09 Fair CLR 18 0 30% 75.62 0.0
07 15:55 NW 15 G 30 16.09 Fair CLR 17 0 32% 75.62 0.0
07 15:35 NW 13 G 26 16.09 Fair CLR 17 -1 30% 75.64 0.0
07 15:15 W 19 16.09 Fair CLR 17 0 32% 75.67 0.0
07 14:55 W 6 G 24 16.09 Fair CLR 16 -1 31% 75.69 0.0
07 14:35 Vrbl 7 G 22 16.09 Fair CLR 16 -1 31% 75.69 0.0
07 14:15 NW 13 16.09 Fair CLR 16 0 34% 75.72 0.0
07 13:55 NW 13 G 26 16.09 Fair CLR 16 0 34% 75.72 0.0
07 13:35 N 13 G 30 14.48 Fair CLR 15 -1 34% 75.77 0.0
07 13:15 NW 15 G 26 16.09 Fair CLR 16 0 34% 75.77 0.0
07 12:55 Vrbl 9 G 24 16.09 Fair CLR 15 0 36% 75.79 0.0
07 12:35 Vrbl 11 G 33 16.09 Fair CLR 15 -1 34% 75.82 0.0
07 12:15 Vrbl 9 G 22 16.09 Fair CLR 15 0 36% 75.82 0.0
07 11:55 NE 17 G 26 16.09 Fair CLR 14 1 41% 75.84 0.0
07 11:35 NW 11 G 26 16.09 Fair CLR 14 0 39% 75.87 0.0
07 11:15 NW 19 16.09 Fair CLR 13 0 41% 75.9 0.0
07 10:55 N 19 16.09 A Few Clouds FEW070 13 0 41% 75.92 0.0
07 10:35 Vrbl 9 G 26 16.09 Mostly Cloudy BKN070 12 2 51% 75.92 0.0
07 10:15 N 15 G 28 16.09 Fair CLR 12 1 47% 75.95 0.0
07 09:55 NW 15 G 26 16.09 A Few Clouds FEW080 12 3 54% 75.95 0.0
07 09:35 N 13 G 22 16.09 Mostly Cloudy BKN080 12 3 54% 75.95 0.0
07 09:15 N 13 G 24 16.09 Fair CLR 11 4 62% 75.92 0.0
07 08:55 Vrbl 9 16.09 A Few Clouds FEW085 11 5 67% 75.95 0.0
07 08:35 NW 15 16.09 Mostly Cloudy BKN085 10 6 76% 8 75.95 0.0
07 08:15 Vrbl 9 16.09 Overcast OVC085 10 7 82% 9 75.92 0.0
07 07:55 Vrbl 7 16.09 Overcast FEW065 OVC090 9 8 94% 8 75.95 0.0
07 07:35 NW 11 16.09 Overcast OVC085 9 9 100% 8 75.95 0.0
07 07:15 Vrbl 6 16.09 Overcast OVC080 9 9 100% 75.9 0.0
07 06:55 Calm 11.27 Overcast BKN065 OVC075 9 9 100% 75.87 0.0
07 06:35 Calm 8.05 Fog/Mist OVC065 9 9 100% 75.84 0.0
07 06:15 Calm 6.44 Fog/Mist OVC065 8 8 100% 75.84 0.0
07 05:55 Calm 8.05 Fog/Mist OVC065 8 8 100% 75.82 0.0
07 05:35 Calm 4.02 Fog/Mist BKN065 8 8 100% 75.79 0.0
07 05:15 Calm 0.40 Fog BKN070 BKN075 8 8 100% 75.77 0.0
07 04:55 Calm 3.22 Fog/Mist BKN075 BKN090 8 8 100% 75.79 0.0
07 04:35 Calm 12.87 Overcast SCT075 OVC085 9 9 100% 75.79 0.0
07 04:15 Calm 16.09 Overcast BKN070 OVC085 9 9 100% 75.79 0.0
07 03:55 Calm 16.09 Overcast FEW055 OVC070 9 9 100% 75.82 0.0
07 03:35 Calm 16.09 Light Drizzle FEW043 FEW055 OVC070 9 9 100% 75.82 0.0
07 03:15 Calm 12.87 Light Rain FEW003 SCT043 BKN055 9 9 100% 75.82 0.0
07 02:55 Calm 9.66 Light Rain FEW033 SCT043 OVC060 9 9 100% 75.84 0.0
07 02:35 Vrbl 7 11.27 Light Rain FEW031 SCT040 BKN055 9 9 100% 8 75.82 0.0
07 02:15 NW 9 8.05 Light Rain FEW022 SCT031 BKN043 9 9 100% 8 75.84 0.0
Date Time (edt) Wind (kph) Vis. (km) Weather Sky Cond. Air Dwpt Max. Min. Relative Humidity Wind Chill (°C) Heat Index (°C) altimeter (cm) sea level (mb) 1 hr 3 hr 6 hr
6 hour
Temperature (ºC) Pressure Precipitation (cm)